Main page
Satellite images 10-day forecastsClimateMarine weather Cyclones Lightning AirportsFAQ Newsletter About
Weather : Europe Africa North America South America Asia Australia-Oceania Others
Languages Contact

Belgrade, Serbia

Belgrade Nikola Tesla Airport

latitude: 44-49N, longitude: 020-17E, elevation: 96 m


METAR: LYBE 300730Z 16003KT 120V200 CAVOK 27/17 Q1023 NOSIG
TAF: LYBE 300500Z 3006/3106 13009KT CAVOK TX35/3012Z TN21/3104Z

Time: 09:49 (07:49 UTC)

Current weather observation

The report was made 19 minutes ago, at 07:30 UTC
Wind 3 kt from the South/Southeast, varying between East/Southeast and South/Southwest
Temperature 27°C
Humidity 54%
Pressure 1023 hPa
Visibility 10 km or more
no clouds below 1500 m and no cumulonimbus

Change units

Forecast

The report was made 2 hours and 49 minutes ago, at 05:00 UTC
Forecast valid from 30 at 06 UTC to 31 at 06 UTC
Wind 9 kt from the Southeast
Visibility 10 km or more
no clouds below 1500 m and no cumulonimbus
The information on this site is subject to a disclaimer
Weather : Europe Africa North America South America Asia Australia-Oceania Others
Satellite images 10-day forecastsClimateMarine weather Cyclones Lightning AirportsFAQ Languages Contact Newsletter About